Time;durP1;ratioP1;P1;durP2;ratioP2;P2;SDS_P1;SDS_P2;PMS_P1;PMS_P2;Temp;Humidity;BMP_temperature;BMP_pressure;BME280_temperature;BME280_humidity;BME280_pressure;Samples;Min_cycle;Max_cycle;Signal;HPM_P1;HPM_P2
2023/06/06 00:00:35;;;;;;;37.80;33.97;;;10.80;99.90;;;;;;5040277;28;20045;-60
2023/06/06 00:03:01;;;;;;;37.35;34.03;;;10.70;99.90;;;;;;5039697;28;20047;-60
2023/06/06 00:05:27;;;;;;;37.65;34.15;;;10.80;99.90;;;;;;5041541;28;20603;-60
2023/06/06 00:07:53;;;;;;;36.85;33.38;;;10.70;99.90;;;;;;5041599;28;20501;-60
2023/06/06 00:10:19;;;;;;;38.42;34.65;;;10.60;99.90;;;;;;5041169;28;20396;-60
2023/06/06 00:12:46;;;;;;;37.70;34.35;;;10.60;99.90;;;;;;5041763;28;20040;-60
2023/06/06 00:15:15;;;;;;;38.92;35.08;;;10.60;99.90;;;;;;5040790;28;20049;-60
2023/06/06 00:17:42;;;;;;;36.78;33.50;;;10.70;99.90;;;;;;5039687;28;20049;-60
2023/06/06 00:20:09;;;;;;;38.83;35.13;;;10.50;99.90;;;;;;5040836;28;20131;-60
2023/06/06 00:22:36;;;;;;;36.95;33.55;;;10.60;99.90;;;;;;5040938;28;20372;-60
2023/06/06 00:25:03;;;;;;;36.72;33.25;;;10.40;99.90;;;;;;5041832;28;20040;-60
2023/06/06 00:27:29;;;;;;;37.17;33.72;;;10.30;99.90;;;;;;5040587;28;20045;-62
2023/06/06 00:29:55;;;;;;;37.08;33.60;;;10.30;99.90;;;;;;5041705;28;20426;-60
2023/06/06 00:32:21;;;;;;;38.15;34.58;;;10.30;99.90;;;;;;5040542;28;20041;-60
2023/06/06 00:34:46;;;;;;;36.53;32.88;;;10.30;1.00;;;;;;5041386;28;20541;-60
2023/06/06 00:37:12;;;;;;;38.20;34.40;;;10.30;1.00;;;;;;5041796;28;20395;-60
2023/06/06 00:39:37;;;;;;;38.97;35.17;;;10.40;1.00;;;;;;5041021;28;20440;-60
2023/06/06 00:42:03;;;;;;;38.17;34.75;;;10.30;1.00;;;;;;5041904;28;20053;-60
2023/06/06 00:44:29;;;;;;;39.72;35.90;;;10.20;67.70;;;;;;5040211;28;20135;-60
2023/06/06 00:46:55;;;;;;;39.13;35.42;;;10.30;99.90;;;;;;5041226;28;20049;-60
2023/06/06 00:49:21;;;;;;;38.40;35.08;;;10.20;99.90;;;;;;5039345;28;20753;-60
2023/06/06 00:51:47;;;;;;;37.72;34.28;;;10.40;99.90;;;;;;5041977;28;20029;-60
2023/06/06 00:54:18;;;;;;;36.58;33.45;;;10.40;1.00;;;;;;5040459;28;20580;-60
2023/06/06 00:56:45;;;;;;;36.78;33.28;;;10.30;1.00;;;;;;5039766;28;20514;-60
2023/06/06 00:59:12;;;;;;;37.22;33.67;;;10.30;86.80;;;;;;5041527;28;20041;-60
2023/06/06 01:01:39;;;;;;;36.85;33.17;;;10.50;99.90;;;;;;5045359;28;20059;-60
2023/06/06 01:04:09;;;;;;;38.47;34.80;;;10.50;99.90;;;;;;5050945;28;20040;-60
2023/06/06 01:06:37;;;;;;;36.58;33.28;;;10.50;99.90;;;;;;5052350;28;20106;-60
2023/06/06 01:09:09;;;;;;;37.08;33.45;;;10.50;99.90;;;;;;5052537;28;20045;-60
2023/06/06 01:11:55;;;;;;;37.72;34.13;;;10.30;1.00;;;;;;5052439;28;20059;-60
2023/06/06 01:14:50;;;;;;;38.65;35.10;;;10.30;1.00;;;;;;5051681;28;20130;-60
2023/06/06 01:17:18;;;;;;;38.28;34.67;;;10.40;1.00;;;;;;5034989;28;20057;-60
2023/06/06 01:19:47;;;;;;;40.58;36.63;;;10.30;91.10;;;;;;5051976;28;20053;-60
2023/06/06 01:22:14;;;;;;;39.38;35.55;;;10.30;99.90;;;;;;5051738;28;20360;-60
2023/06/06 01:24:47;;;;;;;37.35;33.72;;;10.10;99.90;;;;;;5050756;28;20036;-60
2023/06/06 01:27:12;;;;;;;37.55;33.83;;;10.30;99.90;;;;;;5051601;28;20053;-60
2023/06/06 01:29:38;;;;;;;38.53;34.97;;;10.30;99.90;;;;;;5050987;28;20124;-60
2023/06/06 01:32:20;;;;;;;38.95;35.28;;;10.50;99.90;;;;;;5052307;28;20048;-60
2023/06/06 01:35:09;;;;;;;38.95;35.30;;;10.30;1.00;;;;;;5050857;28;20037;-60
2023/06/06 01:38:10;;;;;;;37.92;34.55;;;10.30;22.60;;;;;;5044487;28;20059;-60
2023/06/06 01:40:38;;;;;;;37.55;34.08;;;10.50;99.90;;;;;;5051597;28;20136;-60
2023/06/06 01:43:07;;;;;;;36.92;33.42;;;10.50;99.90;;;;;;5051494;28;20068;-60
2023/06/06 01:45:35;;;;;;;37.45;33.90;;;10.60;99.90;;;;;;5058236;28;20076;-60
2023/06/06 01:48:02;;;;;;;36.10;32.95;;;10.70;1.00;;;;;;5048088;28;20138;-60
2023/06/06 01:50:27;;;;;;;36.78;33.30;;;10.80;27.00;;;;;;5044699;28;20162;-60
2023/06/06 01:52:54;;;;;;;37.05;33.90;;;10.80;99.90;;;;;;5051021;28;20179;-60
2023/06/06 01:55:20;;;;;;;37.63;34.28;;;10.90;99.90;;;;;;5050698;28;20082;-60
2023/06/06 01:57:46;;;;;;;37.25;33.92;;;11.10;99.90;;;;;;5050299;28;20040;-60
2023/06/06 02:00:12;;;;;;;38.08;34.58;;;11.10;1.00;;;;;;5052098;28;20483;-60
2023/06/06 02:02:37;;;;;;;37.35;33.97;;;11.20;1.00;;;;;;5050524;28;20033;-60
2023/06/06 02:05:04;;;;;;;37.55;34.00;;;11.00;11.50;;;;;;5050974;28;20044;-60
2023/06/06 02:07:30;;;;;;;38.97;35.28;;;11.30;52.30;;;;;;5050768;28;20052;-60
2023/06/06 02:09:56;;;;;;;38.53;35.00;;;11.20;99.90;;;;;;5051322;28;20048;-60
2023/06/06 02:12:21;;;;;;;37.83;34.28;;;11.40;99.90;;;;;;5051419;28;20040;-60
2023/06/06 02:14:51;;;;;;;38.50;35.00;;;11.30;99.90;;;;;;5050868;28;20487;-60
2023/06/06 02:17:16;;;;;;;37.05;33.50;;;11.30;99.90;;;;;;5050989;28;20064;-60
2023/06/06 02:19:42;;;;;;;39.20;35.47;;;11.40;99.90;;;;;;5050317;28;20068;-60
2023/06/06 02:22:07;;;;;;;38.75;35.15;;;11.50;99.90;;;;;;5051138;28;20044;-60
2023/06/06 02:24:33;;;;;;;38.80;35.00;;;11.40;99.90;;;;;;5050565;28;20045;-60
2023/06/06 02:26:58;;;;;;;40.20;36.42;;;11.60;99.90;;;;;;5050940;28;20044;-60
2023/06/06 02:29:24;;;;;;;39.03;35.22;;;11.60;99.90;;;;;;5050722;28;20113;-60
2023/06/06 02:31:50;;;;;;;38.20;34.60;;;11.50;99.90;;;;;;5050950;28;20396;-60
2023/06/06 02:34:16;;;;;;;39.88;35.80;;;11.40;99.90;;;;;;5050723;28;20045;-60
2023/06/06 02:36:42;;;;;;;39.45;35.42;;;11.40;99.90;;;;;;5050391;28;20029;-60
2023/06/06 02:39:08;;;;;;;39.08;35.20;;;11.40;99.90;;;;;;5050905;28;20036;-60
2023/06/06 02:41:34;;;;;;;39.13;35.10;;;11.40;99.90;;;;;;5051405;28;20047;-60
2023/06/06 02:44:00;;;;;;;38.95;35.10;;;11.50;99.90;;;;;;5050193;28;20053;-60
2023/06/06 02:46:25;;;;;;;39.30;35.50;;;11.40;99.90;;;;;;5047918;28;20041;-60
2023/06/06 02:48:52;;;;;;;38.22;34.47;;;11.50;99.90;;;;;;5042010;28;20037;-60
2023/06/06 02:51:20;;;;;;;39.47;35.50;;;11.70;99.90;;;;;;5048404;28;20411;-60
2023/06/06 02:53:46;;;;;;;39.30;35.38;;;11.80;99.90;;;;;;5050459;28;20041;-60
2023/06/06 02:56:12;;;;;;;39.83;36.15;;;11.70;99.90;;;;;;5049663;28;20545;-60
2023/06/06 02:58:38;;;;;;;39.03;35.22;;;11.80;99.90;;;;;;5048896;28;20051;-60
2023/06/06 03:01:04;;;;;;;38.85;35.30;;;11.80;99.90;;;;;;5048851;28;20025;-60
2023/06/06 03:03:31;;;;;;;38.60;34.90;;;11.60;99.90;;;;;;5050182;28;20071;-60
2023/06/06 03:05:57;;;;;;;38.80;35.00;;;11.80;99.90;;;;;;5049875;28;20162;-60
2023/06/06 03:08:23;;;;;;;39.83;36.00;;;11.70;99.90;;;;;;5049935;28;20052;-60
2023/06/06 03:10:50;;;;;;;39.25;35.45;;;11.60;99.90;;;;;;5049322;28;20033;-60
2023/06/06 03:13:16;;;;;;;40.53;36.92;;;11.80;99.90;;;;;;5049485;28;20490;-60
2023/06/06 03:15:44;;;;;;;39.78;35.83;;;11.80;99.90;;;;;;5049913;28;20403;-60
2023/06/06 03:18:16;;;;;;;41.35;37.15;;;11.80;99.90;;;;;;5049974;28;20107;-60
2023/06/06 03:20:45;;;;;;;41.35;37.10;;;11.80;99.90;;;;;;5045288;28;20052;-61
2023/06/06 03:23:12;;;;;;;41.83;37.50;;;11.60;99.90;;;;;;5049238;28;20045;-60
2023/06/06 03:25:43;;;;;;;41.00;36.80;;;11.80;99.90;;;;;;5049736;28;20125;-61
2023/06/06 03:28:12;;;;;;;42.13;37.60;;;11.80;99.90;;;;;;5051725;28;20046;-60
2023/06/06 03:30:38;;;;;;;41.80;37.50;;;11.60;99.90;;;;;;5048821;28;20045;-60
2023/06/06 03:33:06;;;;;;;43.15;38.45;;;11.70;99.90;;;;;;5049660;28;20505;-60
2023/06/06 03:35:33;;;;;;;42.75;38.30;;;12.10;99.90;;;;;;5049920;28;20047;-60
2023/06/06 03:38:00;;;;;;;41.70;37.70;;;12.40;99.90;;;;;;5050295;28;20086;-60
2023/06/06 03:40:26;;;;;;;41.63;37.60;;;11.80;99.90;;;;;;5049732;28;20036;-60
2023/06/06 03:42:52;;;;;;;41.72;37.53;;;12.10;99.90;;;;;;5049141;28;20469;-61
2023/06/06 03:45:18;;;;;;;40.88;37.05;;;12.10;99.90;;;;;;5049286;28;20048;-60
2023/06/06 03:47:45;;;;;;;40.88;36.78;;;11.90;99.90;;;;;;5036580;28;20033;-60
2023/06/06 03:50:11;;;;;;;41.25;37.25;;;12.10;99.90;;;;;;5046284;28;20060;-60
2023/06/06 03:52:36;;;;;;;40.95;36.90;;;12.00;99.90;;;;;;5049272;28;20033;-60
2023/06/06 03:55:03;;;;;;;39.38;35.45;;;12.00;99.90;;;;;;5049031;28;20434;-60
2023/06/06 03:57:28;;;;;;;39.28;35.35;;;12.00;99.90;;;;;;5046993;28;20083;-60
2023/06/06 03:59:55;;;;;;;39.67;35.55;;;12.20;99.90;;;;;;5049191;28;20548;-60
2023/06/06 04:02:20;;;;;;;38.33;34.40;;;12.00;99.90;;;;;;5049104;28;20514;-60
2023/06/06 04:04:50;;;;;;;38.08;34.58;;;12.30;99.90;;;;;;5043951;28;20043;-60
2023/06/06 04:07:16;;;;;;;39.08;35.10;;;12.10;99.90;;;;;;5048825;28;20049;-60
2023/06/06 04:09:42;;;;;;;38.50;34.60;;;12.80;99.90;;;;;;5049325;28;20090;-60
2023/06/06 04:12:08;;;;;;;38.85;35.15;;;12.20;99.90;;;;;;5037962;28;20041;-61
2023/06/06 04:14:34;;;;;;;37.15;33.45;;;12.40;99.90;;;;;;5040253;28;21525;-62
2023/06/06 04:17:01;;;;;;;36.33;32.63;;;12.30;68.30;;;;;;5041149;28;20487;-61
2023/06/06 04:19:27;;;;;;;35.97;32.17;;;12.50;1.00;;;;;;5044933;28;20041;-60
2023/06/06 04:21:54;;;;;;;35.90;32.30;;;12.40;1.00;;;;;;5035629;28;20037;-60
2023/06/06 04:24:20;;;;;;;37.08;33.40;;;13.00;99.90;;;;;;5035217;28;20041;-61
2023/06/06 04:26:46;;;;;;;36.90;33.17;;;12.60;99.90;;;;;;5048948;28;20045;-61
2023/06/06 04:29:13;;;;;;;34.97;31.55;;;12.50;31.90;;;;;;5040341;28;20059;-61
2023/06/06 04:31:40;;;;;;;36.60;33.03;;;12.50;99.90;;;;;;5037790;28;20075;-61
2023/06/06 04:34:09;;;;;;;37.83;34.40;;;12.90;99.90;;;;;;5045043;28;20204;-61
2023/06/06 04:36:38;;;;;;;36.30;33.10;;;12.40;1.00;;;;;;5040569;28;20061;-60
2023/06/06 04:39:07;;;;;;;38.80;34.67;;;12.50;99.90;;;;;;5051299;28;20499;-60
2023/06/06 04:41:34;;;;;;;37.17;33.85;;;12.30;99.90;;;;;;5052264;28;20149;-60
2023/06/06 04:44:03;;;;;;;35.88;32.38;;;12.50;1.00;;;;;;5049033;28;20350;-60
2023/06/06 04:46:29;;;;;;;35.90;32.35;;;12.50;99.90;;;;;;5040965;28;20036;-60
2023/06/06 04:48:56;;;;;;;36.17;32.17;;;12.50;99.90;;;;;;5043197;28;20044;-61
2023/06/06 04:51:29;;;;;;;35.25;31.88;;;12.50;1.00;;;;;;5051627;28;20033;-61
2023/06/06 04:54:03;;;;;;;36.25;32.80;;;12.60;99.90;;;;;;5045888;28;20037;-62
2023/06/06 04:56:29;;;;;;;36.08;32.88;;;12.60;99.90;;;;;;5047658;28;20041;-62
2023/06/06 04:58:56;;;;;;;37.28;33.80;;;12.50;30.10;;;;;;5051395;28;20140;-61
2023/06/06 05:01:23;;;;;;;35.95;32.67;;;12.70;1.00;;;;;;5037338;28;20474;-62
2023/06/06 05:03:50;;;;;;;35.20;32.13;;;12.70;99.90;;;;;;5036611;28;20037;-62
2023/06/06 05:06:16;;;;;;;35.50;31.88;;;12.80;99.90;;;;;;5050320;28;20525;-62
2023/06/06 05:08:44;;;;;;;33.95;30.88;;;12.80;87.80;;;;;;5042641;28;20077;-62
2023/06/06 05:11:13;;;;;;;34.60;31.15;;;13.00;1.00;;;;;;5050417;28;20040;-60
2023/06/06 05:13:39;;;;;;;36.67;32.05;;;13.00;1.00;;;;;;5052346;28;20094;-60
2023/06/06 05:16:07;;;;;;;32.90;29.90;;;13.10;99.90;;;;;;5033708;28;20164;-60
2023/06/06 05:18:33;;;;;;;33.17;29.88;;;13.20;99.90;;;;;;5052625;28;20040;-60
2023/06/06 05:21:02;;;;;;;33.55;30.65;;;13.20;65.10;;;;;;5052104;28;20071;-60
2023/06/06 05:23:28;;;;;;;32.90;29.77;;;13.30;1.00;;;;;;5052397;28;20044;-60
2023/06/06 05:25:56;;;;;;;33.55;30.48;;;13.50;1.00;;;;;;5050645;28;20071;-60
2023/06/06 05:28:31;;;;;;;32.85;29.75;;;13.50;99.90;;;;;;5052335;28;20045;-60
2023/06/06 05:30:57;;;;;;;32.58;29.52;;;13.60;99.90;;;;;;5052093;28;20036;-60
2023/06/06 05:33:26;;;;;;;31.88;29.15;;;13.50;99.90;;;;;;5052445;28;20094;-60
2023/06/06 05:35:55;;;;;;;29.85;27.15;;;13.70;1.00;;;;;;5051016;28;20448;-60
2023/06/06 05:38:21;;;;;;;31.85;29.00;;;13.60;1.00;;;;;;5052067;28;20041;-60
2023/06/06 05:40:47;;;;;;;30.40;27.70;;;13.60;99.90;;;;;;5051225;28;20036;-60
2023/06/06 05:43:14;;;;;;;33.42;30.25;;;13.60;99.90;;;;;;5051417;28;20682;-60
2023/06/06 05:45:40;;;;;;;31.60;28.75;;;13.70;89.70;;;;;;5039233;28;20037;-60
2023/06/06 05:48:06;;;;;;;32.72;29.52;;;13.70;19.50;;;;;;5051950;28;20045;-60
2023/06/06 05:50:32;;;;;;;30.20;27.55;;;13.80;1.00;;;;;;5050982;28;20098;-60
2023/06/06 05:52:57;;;;;;;31.92;28.83;;;13.80;1.00;;;;;;5050093;28;20049;-60
2023/06/06 05:55:41;;;;;;;33.83;30.73;;;13.70;99.90;;;;;;5050404;28;20423;-60
2023/06/06 05:58:07;;;;;;;31.60;28.80;;;13.80;99.90;;;;;;5048852;28;20055;-60
2023/06/06 06:00:35;;;;;;;31.98;28.98;;;13.80;99.90;;;;;;5050718;28;20469;-60
2023/06/06 06:03:01;;;;;;;30.50;28.05;;;13.80;99.90;;;;;;5057828;28;20045;-60
2023/06/06 06:05:28;;;;;;;34.05;30.60;;;14.00;99.90;;;;;;5050334;28;20037;-60
2023/06/06 06:08:01;;;;;;;33.10;30.15;;;13.90;99.90;;;;;;5051173;28;20528;-60
2023/06/06 06:10:28;;;;;;;33.35;30.05;;;13.90;99.90;;;;;;5066028;28;20185;-60
2023/06/06 06:12:54;;;;;;;32.35;28.85;;;13.90;78.20;;;;;;5051005;28;20049;-61
2023/06/06 06:15:20;;;;;;;31.90;28.90;;;14.20;15.80;;;;;;5048439;28;20542;-60
2023/06/06 06:17:45;;;;;;;32.25;29.45;;;14.00;1.00;;;;;;5047220;28;20045;-61
2023/06/06 06:20:15;;;;;;;33.63;30.42;;;14.00;1.00;;;;;;5047284;28;20478;-61
2023/06/06 06:22:41;;;;;;;33.47;30.33;;;14.00;1.00;;;;;;5045886;28;20033;-60
2023/06/06 06:25:13;;;;;;;30.77;28.00;;;14.00;1.00;;;;;;5047541;28;20051;-60
2023/06/06 06:27:40;;;;;;;32.97;30.10;;;14.20;1.00;;;;;;5047022;28;20126;-60
2023/06/06 06:30:06;;;;;;;30.50;27.42;;;14.20;1.00;;;;;;5046673;28;20112;-60
2023/06/06 06:32:35;;;;;;;29.48;26.77;;;14.30;1.00;;;;;;5046995;28;20045;-60
2023/06/06 06:35:02;;;;;;;28.05;25.65;;;14.40;1.00;;;;;;5045832;28;20041;-60
2023/06/06 06:37:31;;;;;;;28.77;26.13;;;14.50;99.90;;;;;;5045471;28;20084;-61
2023/06/06 06:39:58;;;;;;;27.15;24.85;;;14.50;99.90;;;;;;5045973;28;20045;-60
2023/06/06 06:42:24;;;;;;;26.23;23.92;;;14.70;99.90;;;;;;5045734;28;20114;-60
2023/06/06 06:44:50;;;;;;;24.67;22.55;;;14.80;99.90;;;;;;5045680;28;20481;-61
2023/06/06 06:47:16;;;;;;;26.08;23.85;;;15.00;99.90;;;;;;5046530;28;20040;-60
2023/06/06 06:49:42;;;;;;;26.67;24.27;;;14.90;99.90;;;;;;5046346;28;20111;-61
2023/06/06 06:52:11;;;;;;;26.77;24.20;;;15.20;98.20;;;;;;5047839;28;20726;-60
2023/06/06 06:54:59;;;;;;;27.95;25.20;;;15.30;56.40;;;;;;5043173;28;20116;-60
2023/06/06 06:57:26;;;;;;;28.55;26.05;;;15.30;1.00;;;;;;5042318;28;20041;-60
2023/06/06 06:59:52;;;;;;;27.90;25.15;;;15.40;2.60;;;;;;5043373;28;20059;-61
2023/06/06 07:02:19;;;;;;;27.23;24.85;;;15.60;1.00;;;;;;5045907;28;20036;-60
2023/06/06 07:04:46;;;;;;;27.75;24.92;;;15.70;1.00;;;;;;5045236;28;20041;-60
2023/06/06 07:07:15;;;;;;;25.58;23.38;;;15.90;1.00;;;;;;5046098;28;20387;-60
2023/06/06 07:09:40;;;;;;;26.67;24.05;;;16.10;1.00;;;;;;5045611;28;20128;-60
2023/06/06 07:12:07;;;;;;;28.60;24.30;;;16.10;1.00;;;;;;5045489;28;20788;-61
2023/06/06 07:14:33;;;;;;;27.98;25.48;;;16.10;1.00;;;;;;5046607;28;20502;-61
2023/06/06 07:16:59;;;;;;;28.17;25.38;;;16.10;1.00;;;;;;5046877;28;20055;-61
2023/06/06 07:19:26;;;;;;;30.75;27.95;;;16.20;1.00;;;;;;5046781;28;20040;-61
2023/06/06 07:21:54;;;;;;;29.00;26.10;;;16.20;99.90;;;;;;5045181;28;20155;-61
2023/06/06 07:24:20;;;;;;;28.50;26.00;;;16.30;99.90;;;;;;5046273;28;20087;-60
2023/06/06 07:26:46;;;;;;;29.13;26.38;;;16.20;99.90;;;;;;5044753;28;20139;-60
2023/06/06 07:29:12;;;;;;;28.92;26.10;;;16.20;99.90;;;;;;5046971;28;20045;-60
2023/06/06 07:31:41;;;;;;;27.83;25.27;;;16.20;99.90;;;;;;5045707;28;20043;-60
2023/06/06 07:34:06;;;;;;;28.52;25.98;;;16.70;99.90;;;;;;5044748;28;20123;-60
2023/06/06 07:36:32;;;;;;;27.98;25.35;;;16.30;99.90;;;;;;5045295;28;20045;-60
2023/06/06 07:38:58;;;;;;;31.27;28.48;;;16.40;99.90;;;;;;5045891;28;20049;-60
2023/06/06 07:41:29;;;;;;;27.45;24.85;;;16.40;99.90;;;;;;5044414;28;20052;-60
2023/06/06 07:43:55;;;;;;;31.05;28.17;;;16.40;99.90;;;;;;5044599;28;20057;-60
2023/06/06 07:46:21;;;;;;;29.52;27.13;;;16.30;99.90;;;;;;5045222;28;20032;-61
2023/06/06 07:48:46;;;;;;;31.25;28.40;;;16.30;99.90;;;;;;5044069;28;20049;-60
2023/06/06 07:51:12;;;;;;;34.47;31.20;;;16.30;99.90;;;;;;5042054;28;20136;-60
2023/06/06 07:53:39;;;;;;;31.77;28.88;;;16.20;99.90;;;;;;5042366;28;20495;-60
2023/06/06 07:56:06;;;;;;;30.70;28.08;;;16.30;99.90;;;;;;5042336;28;20123;-61
2023/06/06 07:58:42;;;;;;;30.77;27.98;;;16.50;99.90;;;;;;5041776;28;20505;-60
2023/06/06 08:01:11;;;;;;;;;;;16.60;99.90;;;;;;5042053;28;20041;-60
2023/06/06 08:03:37;;;;;;;28.98;26.38;;;16.70;99.90;;;;;;5040854;28;19920;-60
2023/06/06 08:06:02;;;;;;;28.70;26.33;;;16.80;99.90;;;;;;5043916;28;20060;-60
2023/06/06 08:08:28;;;;;;;29.17;26.67;;;16.90;99.90;;;;;;5044793;28;20487;-60
2023/06/06 08:10:54;;;;;;;28.95;26.27;;;16.80;99.90;;;;;;5043908;28;20049;-60
2023/06/06 08:13:20;;;;;;;30.20;27.45;;;16.70;99.90;;;;;;5045504;28;20040;-60
2023/06/06 08:15:46;;;;;;;30.00;27.48;;;16.60;99.90;;;;;;5045262;28;20405;-60
2023/06/06 08:18:13;;;;;;;31.02;28.25;;;16.50;99.90;;;;;;5042768;28;20056;-60
2023/06/06 08:20:40;;;;;;;31.08;28.27;;;16.40;99.90;;;;;;5044496;28;20047;-60
2023/06/06 08:23:05;;;;;;;29.08;26.45;;;16.30;99.90;;;;;;5044029;28;20083;-61
2023/06/06 08:25:31;;;;;;;28.95;26.50;;;16.40;99.90;;;;;;5045422;28;20442;-61
2023/06/06 08:28:00;;;;;;;26.65;24.15;;;16.40;99.90;;;;;;5045087;28;20037;-61
2023/06/06 08:30:25;;;;;;;27.77;25.05;;;16.60;99.90;;;;;;5045016;28;20491;-60
2023/06/06 08:32:51;;;;;;;27.08;24.58;;;16.80;99.90;;;;;;5045774;28;20048;-60
2023/06/06 08:35:19;;;;;;;30.33;27.42;;;16.90;99.90;;;;;;5042535;28;20733;-60
2023/06/06 08:37:45;;;;;;;28.45;26.08;;;17.00;99.90;;;;;;5048805;28;20053;-60
2023/06/06 08:40:11;;;;;;;29.38;26.48;;;17.00;99.90;;;;;;5044854;28;20049;-60
2023/06/06 08:42:42;;;;;;;29.77;27.08;;;16.50;99.90;;;;;;5043805;28;20053;-60
2023/06/06 08:45:08;;;;;;;30.48;27.55;;;16.50;99.90;;;;;;5043406;28;20449;-60
2023/06/06 08:47:34;;;;;;;30.27;27.75;;;16.40;99.90;;;;;;5044863;28;20041;-60
2023/06/06 08:50:01;;;;;;;29.23;26.33;;;16.60;99.90;;;;;;5042836;28;20086;-60
2023/06/06 08:52:28;;;;;;;28.52;26.15;;;16.40;99.90;;;;;;5043965;28;20371;-60
2023/06/06 08:54:54;;;;;;;27.25;24.95;;;16.90;99.90;;;;;;5044175;28;20581;-60
2023/06/06 08:57:20;;;;;;;28.08;25.38;;;16.70;99.90;;;;;;5044841;28;20056;-60
2023/06/06 08:59:47;;;;;;;27.27;24.80;;;16.80;99.90;;;;;;5044571;28;20124;-60
2023/06/06 09:02:13;;;;;;;24.42;22.13;;;17.00;99.90;;;;;;5043981;28;20085;-61
2023/06/06 09:04:42;;;;;;;26.30;23.92;;;17.10;99.90;;;;;;5044204;28;20101;-60
2023/06/06 09:07:12;;;;;;;26.02;23.42;;;17.20;99.90;;;;;;5044481;28;20110;-61
2023/06/06 09:09:40;;;;;;;25.08;22.98;;;17.30;99.90;;;;;;5044201;28;20466;-60
2023/06/06 09:12:07;;;;;;;26.77;23.67;;;17.30;99.90;;;;;;5044526;28;20531;-61
2023/06/06 09:14:33;;;;;;;26.73;24.42;;;17.20;99.90;;;;;;5044574;28;20068;-61
2023/06/06 09:16:59;;;;;;;24.35;22.35;;;17.30;99.90;;;;;;5039717;28;20159;-61
2023/06/06 09:19:26;;;;;;;25.33;23.13;;;17.30;99.90;;;;;;5039770;28;20135;-61
2023/06/06 09:21:52;;;;;;;23.35;21.35;;;17.30;99.90;;;;;;5040924;28;20063;-61
2023/06/06 09:24:18;;;;;;;28.70;25.95;;;17.30;99.90;;;;;;5055354;28;20059;-60
2023/06/06 09:26:44;;;;;;;26.98;24.38;;;17.40;99.90;;;;;;5047062;28;20131;-61
2023/06/06 09:29:12;;;;;;;25.52;23.35;;;17.40;99.90;;;;;;5048074;28;20123;-61
2023/06/06 09:31:39;;;;;;;25.55;23.23;;;17.50;99.90;;;;;;5048699;28;20033;-61
2023/06/06 09:34:07;;;;;;;24.75;22.38;;;17.40;99.90;;;;;;5048156;28;20090;-61
2023/06/06 09:36:32;;;;;;;24.10;22.20;;;17.70;99.90;;;;;;5043228;28;20030;-61
2023/06/06 09:39:12;;;;;;;24.73;22.73;;;17.60;99.90;;;;;;5048585;28;20086;-60
2023/06/06 09:41:40;;;;;;;25.77;23.73;;;17.40;99.90;;;;;;5048487;28;20503;-60
2023/06/06 09:44:19;;;;;;;23.35;21.30;;;17.20;99.90;;;;;;5048670;28;20040;-61
2023/06/06 09:46:45;;;;;;;26.95;24.27;;;17.40;99.90;;;;;;5046198;28;20064;-60
2023/06/06 09:49:12;;;;;;;25.05;22.55;;;17.60;99.90;;;;;;5048226;28;20071;-61
2023/06/06 09:51:42;;;;;;;22.85;20.42;;;17.80;99.90;;;;;;5048028;28;20051;-60
2023/06/06 09:54:11;;;;;;;23.35;21.02;;;17.80;99.90;;;;;;5048678;28;20041;-60
2023/06/06 09:56:38;;;;;;;24.05;21.73;;;17.80;99.90;;;;;;5047258;28;20041;-60
2023/06/06 09:59:05;;;;;;;26.50;23.75;;;17.70;99.90;;;;;;5048380;28;20044;-61
2023/06/06 10:01:33;;;;;;;28.40;25.75;;;17.60;99.90;;;;;;5046924;28;20033;-60
2023/06/06 10:04:00;;;;;;;29.67;27.05;;;17.50;99.90;;;;;;5048213;28;20545;-61
2023/06/06 10:06:33;;;;;;;33.17;30.15;;;17.80;99.90;;;;;;5047502;28;20033;-61
2023/06/06 10:08:59;;;;;;;34.88;31.83;;;17.40;99.90;;;;;;5047466;28;20103;-60
2023/06/06 10:11:27;;;;;;;39.40;35.80;;;17.50;99.90;;;;;;5048191;28;20578;-60
2023/06/06 10:13:54;;;;;;;39.45;36.10;;;17.40;99.90;;;;;;5048030;28;20059;-60
2023/06/06 10:16:20;;;;;;;46.08;41.30;;;17.40;99.90;;;;;;5048207;28;20045;-60
2023/06/06 10:18:48;;;;;;;40.65;37.00;;;17.30;99.90;;;;;;5046931;28;20043;-61
2023/06/06 10:21:17;;;;;;;42.97;39.17;;;17.90;99.90;;;;;;5046810;28;20071;-60
2023/06/06 10:23:43;;;;;;;42.35;38.15;;;17.30;99.90;;;;;;5047892;28;20049;-60
2023/06/06 10:26:36;;;;;;;44.13;39.80;;;17.30;99.90;;;;;;5046623;28;20047;-60
2023/06/06 10:29:08;;;;;;;41.35;37.28;;;17.20;99.90;;;;;;5033910;28;20061;-60
2023/06/06 10:31:52;;;;;;;38.47;34.78;;;17.40;99.90;;;;;;5047969;28;20053;-60
2023/06/06 10:34:22;;;;;;;41.38;37.67;;;17.30;99.90;;;;;;5046706;28;20048;-60
2023/06/06 10:36:48;;;;;;;41.00;37.13;;;17.30;99.90;;;;;;5045428;28;20050;-60
2023/06/06 10:39:21;;;;;;;43.58;39.20;;;17.30;99.90;;;;;;5046636;28;20037;-60
2023/06/06 10:41:53;;;;;;;43.78;39.83;;;17.70;99.90;;;;;;5046403;28;20033;-60
2023/06/06 10:44:44;;;;;;;44.70;40.53;;;17.50;99.90;;;;;;5047956;28;20052;-60
2023/06/06 10:47:32;;;;;;;48.55;43.85;;;17.30;99.90;;;;;;5040648;28;20144;-60
2023/06/06 10:50:13;;;;;;;46.83;42.40;;;17.10;99.90;;;;;;5046414;28;20501;-59
2023/06/06 10:52:59;;;;;;;45.90;41.60;;;17.20;99.90;;;;;;5047034;28;20041;-60
2023/06/06 10:55:25;;;;;;;48.55;43.83;;;17.10;99.90;;;;;;5045795;28;20051;-60
2023/06/06 10:58:03;;;;;;;49.17;44.58;;;17.20;99.90;;;;;;5047255;28;20053;-60
2023/06/06 11:00:32;;;;;;;49.72;44.97;;;17.20;99.90;;;;;;5044148;28;20036;-60
2023/06/06 11:02:58;;;;;;;49.53;44.92;;;17.50;99.90;;;;;;5044641;28;20388;-60
2023/06/06 11:05:24;;;;;;;48.47;43.97;;;17.10;99.90;;;;;;5046990;28;20045;-60
2023/06/06 11:07:54;;;;;;;51.08;46.38;;;17.60;99.90;;;;;;5046708;28;20057;-60
2023/06/06 11:10:23;;;;;;;50.55;45.88;;;16.90;99.90;;;;;;5047024;28;20052;-60
2023/06/06 11:12:50;;;;;;;49.65;45.08;;;16.80;99.90;;;;;;5045796;28;20056;-60
2023/06/06 11:15:30;;;;;;;49.15;44.78;;;16.80;99.90;;;;;;5046382;28;20186;-60
2023/06/06 11:18:05;;;;;;;48.60;44.15;;;16.80;99.90;;;;;;5046891;28;20135;-60
2023/06/06 11:20:40;;;;;;;51.55;46.60;;;17.00;99.90;;;;;;5045572;28;20808;-60
2023/06/06 11:23:06;;;;;;;48.80;43.88;;;17.10;99.90;;;;;;5046935;28;20040;-59
2023/06/06 11:25:35;;;;;;;51.08;46.35;;;17.20;99.90;;;;;;5046186;28;20147;-60
2023/06/06 11:28:01;;;;;;;48.70;44.03;;;17.20;99.90;;;;;;5045026;28;20098;-60
2023/06/06 11:30:31;;;;;;;47.85;43.63;;;17.10;99.90;;;;;;5045675;28;20495;-60
2023/06/06 11:32:56;;;;;;;52.45;47.67;;;17.40;99.90;;;;;;5043899;28;20045;-60
2023/06/06 11:35:23;;;;;;;49.55;44.83;;;17.00;99.90;;;;;;5045284;28;20495;-60
2023/06/06 11:37:49;;;;;;;51.28;46.42;;;17.00;99.90;;;;;;5045936;28;20068;-60
2023/06/06 11:40:15;;;;;;;49.30;44.40;;;17.00;99.90;;;;;;5044842;28;20033;-60
2023/06/06 11:42:45;;;;;;;45.47;41.38;;;17.00;99.90;;;;;;5042873;28;20134;-60
2023/06/06 11:45:18;;;;;;;47.45;43.28;;;17.00;99.90;;;;;;5044336;28;20071;-60
2023/06/06 11:47:44;;;;;;;48.15;43.85;;;17.00;99.90;;;;;;5043838;28;20055;-60
2023/06/06 11:50:11;;;;;;;49.15;44.50;;;16.90;99.90;;;;;;5045450;28;20053;-60
2023/06/06 11:52:50;;;;;;;44.55;40.50;;;17.00;99.90;;;;;;5044733;28;20467;-60
2023/06/06 11:55:17;;;;;;;45.05;41.22;;;17.10;99.90;;;;;;5045283;28;20462;-60
2023/06/06 11:57:43;;;;;;;43.85;39.88;;;17.10;99.90;;;;;;5045914;28;20123;-60
2023/06/06 12:00:11;;;;;;;44.22;40.30;;;17.10;99.90;;;;;;5045487;28;20135;-60
2023/06/06 12:02:38;;;;;;;44.60;40.83;;;17.10;99.90;;;;;;5044454;28;20052;-60
2023/06/06 12:05:04;;;;;;;52.25;47.17;;;17.10;99.90;;;;;;5045112;28;20075;-60
2023/06/06 12:07:30;;;;;;;49.78;45.17;;;17.00;99.90;;;;;;5043143;28;20065;-60
2023/06/06 12:09:59;;;;;;;49.28;44.75;;;17.10;99.90;;;;;;5044402;28;20563;-60
2023/06/06 12:12:26;;;;;;;49.33;45.03;;;17.00;99.90;;;;;;5043301;28;20037;-60
2023/06/06 12:14:55;;;;;;;50.55;45.83;;;17.00;99.90;;;;;;5043364;28;20165;-60
2023/06/06 12:17:25;;;;;;;50.88;46.08;;;17.10;99.90;;;;;;5041265;28;20086;-60
2023/06/06 12:19:54;;;;;;;51.75;47.05;;;17.50;99.90;;;;;;5043552;28;20059;-60
2023/06/06 12:22:33;;;;;;;53.75;48.65;;;17.00;99.90;;;;;;5043584;28;20053;-60
2023/06/06 12:24:59;;;;;;;52.10;47.08;;;17.00;99.90;;;;;;5042515;28;20075;-60
2023/06/06 12:27:27;;;;;;;52.60;47.65;;;17.10;99.90;;;;;;5045147;28;20482;-60
2023/06/06 12:29:57;;;;;;;56.33;51.08;;;17.10;99.90;;;;;;5038983;28;20044;-60
2023/06/06 12:32:26;;;;;;;52.92;47.63;;;17.10;99.90;;;;;;5040735;28;20045;-60